createdAt,value
2023-03-02T00:01:44.606Z,7.70
2023-03-02T00:04:13.845Z,7.70
2023-03-02T00:06:41.897Z,7.70
2023-03-02T00:09:16.108Z,7.70
2023-03-02T00:11:45.596Z,7.60
2023-03-02T00:14:13.666Z,7.70
2023-03-02T00:16:41.800Z,7.60
2023-03-02T00:19:09.818Z,7.70
2023-03-02T00:21:37.841Z,7.70
2023-03-02T00:24:06.735Z,7.70
2023-03-02T00:26:36.269Z,7.70
2023-03-02T00:29:04.439Z,7.70
2023-03-02T00:31:32.499Z,7.70
2023-03-02T00:34:00.649Z,7.70
2023-03-02T00:36:28.729Z,7.70
2023-03-02T00:38:57.457Z,7.70
2023-03-02T00:41:25.492Z,7.70
2023-03-02T00:43:54.888Z,7.70
2023-03-02T00:46:24.236Z,7.70
2023-03-02T00:48:56.718Z,7.70
2023-03-02T00:51:25.134Z,7.70
2023-03-02T00:53:53.136Z,7.70
2023-03-02T00:56:21.210Z,7.70
2023-03-02T00:58:49.237Z,7.70
2023-03-02T01:01:18.890Z,7.70
2023-03-02T01:03:47.038Z,7.70
2023-03-02T01:06:16.013Z,7.70
2023-03-02T01:08:44.281Z,7.70
2023-03-02T01:11:16.072Z,7.70
2023-03-02T01:13:44.159Z,7.70
2023-03-02T01:16:12.706Z,7.70
2023-03-02T01:18:42.119Z,7.70
2023-03-02T01:21:11.841Z,7.60
2023-03-02T01:23:39.884Z,7.70
2023-03-02T01:26:08.049Z,7.70
2023-03-02T01:28:38.769Z,7.70
2023-03-02T01:31:06.861Z,7.70
2023-03-02T01:33:34.960Z,7.70
2023-03-02T01:36:04.472Z,7.70
2023-03-02T01:38:32.599Z,7.70
2023-03-02T01:41:02.780Z,7.70
2023-03-02T01:43:30.776Z,7.60
2023-03-02T01:45:59.512Z,7.70
2023-03-02T01:48:29.260Z,7.60
2023-03-02T01:50:57.304Z,7.60
2023-03-02T01:53:28.554Z,7.60
2023-03-02T01:55:56.811Z,7.60
2023-03-02T01:58:24.812Z,7.70
2023-03-02T02:00:52.947Z,7.60
2023-03-02T02:03:22.932Z,7.60
2023-03-02T02:05:57.089Z,7.60
2023-03-02T02:08:25.345Z,7.60
2023-03-02T02:10:54.914Z,7.60
2023-03-02T02:13:22.935Z,7.60
2023-03-02T02:15:50.976Z,7.60
2023-03-02T02:18:18.985Z,7.60
2023-03-02T02:20:47.209Z,7.60
2023-03-02T02:23:20.720Z,7.60
2023-03-02T02:26:03.177Z,7.60
2023-03-02T02:28:33.014Z,7.60
2023-03-02T02:31:07.010Z,7.60
2023-03-02T02:33:35.014Z,7.60
2023-03-02T02:36:04.717Z,7.60
2023-03-02T02:38:32.764Z,7.60
2023-03-02T02:41:03.514Z,7.60
2023-03-02T02:43:31.993Z,7.60
2023-03-02T02:46:00.331Z,7.60
2023-03-02T02:48:31.172Z,7.60
2023-03-02T02:51:01.392Z,7.60
2023-03-02T02:53:31.540Z,7.60
2023-03-02T02:56:00.935Z,7.60
2023-03-02T02:58:32.351Z,7.60
2023-03-02T03:01:02.983Z,7.60
2023-03-02T03:03:32.430Z,7.60
2023-03-02T03:06:01.821Z,7.60
2023-03-02T03:08:58.329Z,7.60
2023-03-02T03:11:28.959Z,7.60
2023-03-02T03:14:08.687Z,7.60
2023-03-02T03:16:37.368Z,7.60
2023-03-02T03:19:09.510Z,7.60
2023-03-02T03:21:37.540Z,7.60
2023-03-02T03:24:06.237Z,7.60
2023-03-02T03:26:35.700Z,7.60
2023-03-02T03:29:03.799Z,7.60
2023-03-02T03:31:31.840Z,7.60
2023-03-02T03:34:00.608Z,7.60
2023-03-02T03:36:28.963Z,7.60
2023-03-02T03:38:57.079Z,7.60
2023-03-02T03:41:25.264Z,7.60
2023-03-02T03:43:54.691Z,7.60
2023-03-02T03:46:22.765Z,7.60
2023-03-02T03:48:50.851Z,7.60
2023-03-02T03:51:18.937Z,7.60
2023-03-02T03:53:47.012Z,7.60
2023-03-02T03:56:15.100Z,7.60
2023-03-02T03:58:43.143Z,7.60
2023-03-02T04:01:12.677Z,7.60
2023-03-02T04:03:40.751Z,7.60
2023-03-02T04:06:19.048Z,7.60
2023-03-02T04:08:47.070Z,7.60
2023-03-02T04:11:15.085Z,7.60
2023-03-02T04:13:43.094Z,7.60
2023-03-02T04:16:16.514Z,7.60
2023-03-02T04:18:44.564Z,7.60
2023-03-02T04:21:12.586Z,7.60
2023-03-02T04:23:40.684Z,7.60
2023-03-02T04:26:08.707Z,7.60
2023-03-02T04:28:36.754Z,7.60
2023-03-02T04:31:04.969Z,7.60
2023-03-02T04:33:34.630Z,7.50
2023-03-02T04:36:02.976Z,7.60
2023-03-02T04:38:31.022Z,7.50
2023-03-02T04:40:59.127Z,7.50
2023-03-02T04:43:27.208Z,7.50
2023-03-02T04:45:55.281Z,7.50
2023-03-02T04:48:23.398Z,7.50
2023-03-02T04:50:52.829Z,7.50
2023-03-02T04:53:20.857Z,7.50
2023-03-02T04:55:49.275Z,7.50
2023-03-02T04:58:17.315Z,7.50
2023-03-02T05:00:45.403Z,7.50
2023-03-02T05:03:13.425Z,7.50
2023-03-02T05:05:41.493Z,7.50
2023-03-02T05:08:10.943Z,7.50
2023-03-02T05:10:39.008Z,7.50
2023-03-02T05:13:07.359Z,7.50
2023-03-02T05:15:36.141Z,7.50
2023-03-02T05:18:04.451Z,7.50
2023-03-02T05:20:32.448Z,7.50
2023-03-02T05:23:01.686Z,7.50
2023-03-02T05:25:32.214Z,7.50
2023-03-02T05:28:00.235Z,7.50
2023-03-02T05:30:28.330Z,7.50
2023-03-02T05:32:56.394Z,7.50
2023-03-02T05:35:24.611Z,7.50
2023-03-02T05:37:52.691Z,7.50
2023-03-02T05:40:21.545Z,7.50
2023-03-02T05:42:50.978Z,7.50
2023-03-02T05:45:20.543Z,7.50
2023-03-02T05:47:48.574Z,7.50
2023-03-02T05:50:16.727Z,7.50
2023-03-02T05:52:45.480Z,7.50
2023-03-02T05:55:13.595Z,7.50
2023-03-02T05:57:45.160Z,7.50
2023-03-02T06:00:15.622Z,7.50
2023-03-02T06:02:43.727Z,7.50
2023-03-02T06:05:13.841Z,7.50
2023-03-02T06:07:41.859Z,7.50
2023-03-02T06:10:11.003Z,7.50
2023-03-02T06:12:39.248Z,7.50
2023-03-02T06:15:08.485Z,7.50
2023-03-02T06:17:37.909Z,7.50
2023-03-02T06:20:10.863Z,7.50
2023-03-02T06:22:41.230Z,7.50
2023-03-02T06:25:10.322Z,7.50
2023-03-02T06:27:38.815Z,7.50
2023-03-02T06:30:07.805Z,7.50
2023-03-02T06:32:37.258Z,7.50
2023-03-02T06:35:06.521Z,7.50
2023-03-02T06:37:34.663Z,7.40
2023-03-02T06:40:02.963Z,7.50
2023-03-02T06:42:31.028Z,7.50
2023-03-02T06:44:59.038Z,7.50
2023-03-02T06:47:27.159Z,7.50
2023-03-02T06:49:56.652Z,7.40
2023-03-02T06:52:24.693Z,7.50
2023-03-02T06:54:52.698Z,7.50
2023-03-02T06:57:20.770Z,7.50
2023-03-02T06:59:48.819Z,7.50
2023-03-02T07:02:16.858Z,7.50
2023-03-02T07:04:44.884Z,7.50
2023-03-02T07:07:14.319Z,7.50
2023-03-02T07:09:42.408Z,7.50
2023-03-02T07:12:10.447Z,7.50
2023-03-02T07:14:38.624Z,7.50
2023-03-02T07:17:06.737Z,7.50
2023-03-02T07:19:34.744Z,7.50
2023-03-02T07:22:02.813Z,7.50
2023-03-02T07:24:32.241Z,7.50
2023-03-02T07:27:00.244Z,7.50
2023-03-02T07:29:28.458Z,7.50
2023-03-02T07:31:57.399Z,7.50
2023-03-02T07:34:25.759Z,7.50
2023-03-02T07:36:57.757Z,7.50
2023-03-02T07:39:25.784Z,7.50
2023-03-02T07:41:58.294Z,7.50
2023-03-02T07:44:26.349Z,7.50
2023-03-02T07:46:54.639Z,7.50
2023-03-02T07:49:22.795Z,7.50
2023-03-02T07:51:50.778Z,7.50
2023-03-02T07:54:18.844Z,7.50
2023-03-02T07:56:46.856Z,7.50
2023-03-02T07:59:16.289Z,7.50
2023-03-02T08:01:44.361Z,7.50
2023-03-02T08:04:12.429Z,7.50
2023-03-02T08:06:42.438Z,7.50
2023-03-02T08:09:10.676Z,7.50
2023-03-02T08:11:38.749Z,7.50
2023-03-02T08:14:06.799Z,7.50
2023-03-02T08:16:36.204Z,7.50
2023-03-02T08:19:04.217Z,7.50
2023-03-02T08:21:33.857Z,7.50
2023-03-02T08:24:03.236Z,7.50
2023-03-02T08:26:31.335Z,7.50
2023-03-02T08:29:03.121Z,7.50
2023-03-02T08:31:31.585Z,7.50
2023-03-02T08:34:01.191Z,7.50
2023-03-02T08:36:29.252Z,7.50
2023-03-02T08:38:57.300Z,7.50
2023-03-02T08:41:26.167Z,7.50
2023-03-02T08:43:54.492Z,7.50
2023-03-02T08:46:22.682Z,7.50
2023-03-02T08:48:51.275Z,7.50
2023-03-02T08:51:21.910Z,7.50
2023-03-02T08:53:51.321Z,7.50
2023-03-02T08:56:20.184Z,7.50
2023-03-02T08:58:48.340Z,7.50
2023-03-02T09:01:17.679Z,7.50
2023-03-02T09:03:45.869Z,7.50
2023-03-02T09:06:14.042Z,7.50
2023-03-02T09:08:43.663Z,7.50
2023-03-02T09:11:11.770Z,7.50
2023-03-02T09:13:39.841Z,7.50
2023-03-02T09:16:08.581Z,7.50
2023-03-02T09:18:36.695Z,7.50
2023-03-02T09:21:05.119Z,7.50
2023-03-02T09:23:33.412Z,7.50
2023-03-02T09:26:02.842Z,7.50
2023-03-02T09:28:33.203Z,7.50
2023-03-02T09:31:02.731Z,7.50
2023-03-02T09:33:31.048Z,7.50
2023-03-02T09:35:59.110Z,7.50
2023-03-02T09:38:27.139Z,7.50
2023-03-02T09:41:29.272Z,7.50
2023-03-02T09:44:01.862Z,7.50
2023-03-02T09:46:31.441Z,7.50
2023-03-02T09:49:06.753Z,7.50
2023-03-02T09:51:37.234Z,7.50
2023-03-02T09:54:11.278Z,7.50
2023-03-02T09:56:41.231Z,7.50
2023-03-02T09:59:21.899Z,7.50
2023-03-02T10:01:52.436Z,7.50
2023-03-02T10:04:23.919Z,7.50
2023-03-02T10:06:55.366Z,7.50
2023-03-02T10:09:23.390Z,7.50
2023-03-02T10:12:18.448Z,7.50
2023-03-02T10:14:50.513Z,7.50
2023-03-02T10:17:36.650Z,7.50
2023-03-02T10:20:06.229Z,7.50
2023-03-02T10:22:35.510Z,7.50
2023-03-02T10:25:10.196Z,7.60
2023-03-02T10:27:39.538Z,7.60
2023-03-02T10:30:12.546Z,7.60
2023-03-02T10:32:44.463Z,7.60
2023-03-02T10:35:14.869Z,7.60
2023-03-02T10:37:43.010Z,7.60
2023-03-02T10:40:15.029Z,7.60
2023-03-02T10:42:43.081Z,7.60
2023-03-02T10:45:20.191Z,7.60
2023-03-02T10:47:48.297Z,7.60
2023-03-02T10:50:22.663Z,7.60
2023-03-02T10:52:59.516Z,7.60
2023-03-02T10:55:28.707Z,7.60
2023-03-02T10:58:01.888Z,7.60
2023-03-02T11:00:31.891Z,7.60
2023-03-02T11:03:01.147Z,7.60
2023-03-02T11:05:32.044Z,7.60
2023-03-02T11:08:04.014Z,7.60
2023-03-02T11:10:34.310Z,7.60
2023-03-02T11:13:03.050Z,7.60
2023-03-02T11:15:37.182Z,7.60
2023-03-02T11:18:09.477Z,7.60
2023-03-02T11:20:38.973Z,7.60
2023-03-02T11:23:16.272Z,7.60
2023-03-02T11:25:48.402Z,7.60
2023-03-02T11:28:30.949Z,7.60
2023-03-02T11:31:00.400Z,7.60
2023-03-02T11:33:31.007Z,7.60
2023-03-02T11:36:00.492Z,7.60
2023-03-02T11:38:29.944Z,7.60
2023-03-02T11:40:59.600Z,7.60
2023-03-02T11:43:27.714Z,7.60
2023-03-02T11:45:58.613Z,7.60
2023-03-02T11:48:29.513Z,7.60
2023-03-02T11:50:58.628Z,7.70
2023-03-02T11:53:30.211Z,7.70
2023-03-02T11:56:03.262Z,7.70
2023-03-02T11:58:31.321Z,7.70
2023-03-02T12:00:59.354Z,7.70
2023-03-02T12:03:45.665Z,7.70
2023-03-02T12:06:35.664Z,7.70
2023-03-02T12:09:30.940Z,7.70
2023-03-02T12:12:21.935Z,7.70
2023-03-02T12:14:49.969Z,7.70
2023-03-02T12:17:23.267Z,7.70
2023-03-02T12:19:53.839Z,7.70
2023-03-02T12:22:29.055Z,7.70
2023-03-02T12:25:05.943Z,7.70
2023-03-02T12:27:38.367Z,7.70
2023-03-02T12:30:26.801Z,7.70
2023-03-02T12:33:17.954Z,7.70
2023-03-02T12:35:47.565Z,7.70
2023-03-02T12:38:29.207Z,7.70
2023-03-02T12:41:18.965Z,7.70
2023-03-02T12:43:48.995Z,7.70
2023-03-02T12:46:32.364Z,7.70
2023-03-02T12:49:21.398Z,7.70
2023-03-02T12:51:55.123Z,7.70
2023-03-02T12:54:26.242Z,7.70
2023-03-02T12:57:06.257Z,7.80
2023-03-02T12:59:34.314Z,7.80
2023-03-02T13:02:15.883Z,7.80
2023-03-02T13:04:43.934Z,7.80
2023-03-02T13:07:20.210Z,7.80
2023-03-02T13:09:56.251Z,7.80
2023-03-02T13:12:27.042Z,7.80
2023-03-02T13:14:58.777Z,7.80
2023-03-02T13:17:29.531Z,7.80
2023-03-02T13:19:57.626Z,7.80
2023-03-02T13:22:27.294Z,7.80
2023-03-02T13:24:59.086Z,7.80
2023-03-02T13:27:27.838Z,7.80
2023-03-02T13:29:56.664Z,7.80
2023-03-02T13:32:25.833Z,7.80
2023-03-02T13:34:54.865Z,7.80
2023-03-02T13:37:28.244Z,7.80
2023-03-02T13:39:56.751Z,7.80
2023-03-02T13:42:29.862Z,7.80
2023-03-02T13:44:57.919Z,7.80
2023-03-02T13:47:26.064Z,7.80
2023-03-02T13:49:54.109Z,7.80
2023-03-02T13:52:27.526Z,7.80
2023-03-02T13:54:55.536Z,7.80
2023-03-02T13:57:26.037Z,7.80
2023-03-02T13:59:54.063Z,7.80
2023-03-02T14:02:25.059Z,7.80
2023-03-02T14:04:58.449Z,7.80
2023-03-02T14:07:27.937Z,7.80
2023-03-02T14:09:57.554Z,7.80
2023-03-02T14:12:27.234Z,7.80
2023-03-02T14:14:55.652Z,7.80
2023-03-02T14:17:24.859Z,7.80
2023-03-02T14:19:53.707Z,7.80
2023-03-02T14:22:21.779Z,7.90
2023-03-02T14:24:51.184Z,7.90
2023-03-02T14:27:19.185Z,7.90
2023-03-02T14:29:47.502Z,7.90
2023-03-02T14:32:16.400Z,7.90
2023-03-02T14:34:44.415Z,7.90
2023-03-02T14:37:13.794Z,7.90
2023-03-02T14:39:42.565Z,7.90
2023-03-02T14:42:14.013Z,7.90
2023-03-02T14:44:42.119Z,7.90
2023-03-02T14:47:10.471Z,7.90
2023-03-02T14:49:38.494Z,7.90
2023-03-02T14:52:07.532Z,7.90
2023-03-02T14:54:39.366Z,7.90
2023-03-02T14:57:09.454Z,7.90
2023-03-02T14:59:38.852Z,7.90
2023-03-02T15:02:19.170Z,7.90
2023-03-02T15:04:55.994Z,7.90
2023-03-02T15:07:24.539Z,7.90
2023-03-02T15:09:52.564Z,7.90
2023-03-02T15:12:20.647Z,7.90
2023-03-02T15:14:50.098Z,7.90
2023-03-02T15:17:18.194Z,7.90
2023-03-02T15:19:46.236Z,7.90
2023-03-02T15:22:14.352Z,7.90
2023-03-02T15:24:42.368Z,7.90
2023-03-02T15:27:10.400Z,7.90
2023-03-02T15:29:38.494Z,7.90
2023-03-02T15:32:08.062Z,8.00
2023-03-02T15:34:36.508Z,8.00
2023-03-02T15:37:04.600Z,8.00
2023-03-02T15:39:33.383Z,8.00
2023-03-02T15:42:01.641Z,8.00
2023-03-02T15:44:29.754Z,8.00
2023-03-02T15:46:59.061Z,8.00
2023-03-02T15:49:29.446Z,8.00
2023-03-02T15:51:58.467Z,8.00
2023-03-02T15:54:26.666Z,8.00
2023-03-02T15:56:54.765Z,8.00
2023-03-02T15:59:23.845Z,8.00
2023-03-02T16:01:51.906Z,8.00
2023-03-02T16:04:20.023Z,8.00
2023-03-02T16:06:49.443Z,8.00
2023-03-02T16:09:17.898Z,8.00
2023-03-02T16:11:45.939Z,8.00
2023-03-02T16:14:15.650Z,8.00
2023-03-02T16:16:43.942Z,8.00
2023-03-02T16:19:12.434Z,8.00
2023-03-02T16:21:40.491Z,8.00
2023-03-02T16:24:10.242Z,8.00
2023-03-02T16:26:38.756Z,8.00
2023-03-02T16:29:08.023Z,8.00
2023-03-02T16:31:39.615Z,8.00
2023-03-02T16:34:08.905Z,8.00
2023-03-02T16:36:37.433Z,8.00
2023-03-02T16:39:11.456Z,8.00
2023-03-02T16:41:40.004Z,8.00
2023-03-02T16:44:08.060Z,8.00
2023-03-02T16:46:37.337Z,8.00
2023-03-02T16:49:05.489Z,8.00
2023-03-02T16:51:33.523Z,8.00
2023-03-02T16:54:01.591Z,8.00
2023-03-02T16:56:31.138Z,8.00
2023-03-02T16:59:00.206Z,8.00
2023-03-02T17:01:33.573Z,8.00
2023-03-02T17:04:03.210Z,8.00
2023-03-02T17:06:32.307Z,8.00
2023-03-02T17:09:00.323Z,8.00
2023-03-02T17:11:28.368Z,8.00
2023-03-02T17:13:57.810Z,8.00
2023-03-02T17:16:26.505Z,8.10
2023-03-02T17:18:54.546Z,8.00
2023-03-02T17:21:24.236Z,8.00
2023-03-02T17:23:52.259Z,8.00
2023-03-02T17:26:20.291Z,8.10
2023-03-02T17:28:48.333Z,8.00
2023-03-02T17:31:17.789Z,8.00
2023-03-02T17:33:45.838Z,8.10
2023-03-02T17:36:15.351Z,8.00
2023-03-02T17:38:43.425Z,8.00
2023-03-02T17:41:11.663Z,8.00
2023-03-02T17:43:41.068Z,8.00
2023-03-02T17:46:13.933Z,8.10
2023-03-02T17:48:43.462Z,8.00
2023-03-02T17:51:14.860Z,8.00
2023-03-02T17:53:42.972Z,8.10
2023-03-02T17:56:11.128Z,8.10
2023-03-02T17:58:45.653Z,8.10
2023-03-02T18:01:15.599Z,8.10
2023-03-02T18:03:46.044Z,8.10
2023-03-02T18:06:14.569Z,8.10
2023-03-02T18:08:42.600Z,8.10
2023-03-02T18:11:10.670Z,8.00
2023-03-02T18:13:38.744Z,8.00
2023-03-02T18:16:07.494Z,8.00
2023-03-02T18:18:35.604Z,8.00
2023-03-02T18:21:05.229Z,8.00
2023-03-02T18:23:33.309Z,8.10
2023-03-02T18:26:01.335Z,8.10
2023-03-02T18:28:29.362Z,8.00
2023-03-02T18:30:57.512Z,8.00
2023-03-02T18:33:25.599Z,8.10
2023-03-02T18:35:53.629Z,8.00
2023-03-02T18:38:23.049Z,8.00
2023-03-02T18:40:51.095Z,8.00
2023-03-02T18:43:19.142Z,8.00
2023-03-02T18:45:47.233Z,8.00
2023-03-02T18:48:15.246Z,8.00
2023-03-02T18:50:43.787Z,8.00
2023-03-02T18:53:12.943Z,8.00
2023-03-02T18:55:47.125Z,8.00
2023-03-02T18:58:20.576Z,8.00
2023-03-02T19:00:48.708Z,8.00
2023-03-02T19:03:17.031Z,8.00
2023-03-02T19:05:45.889Z,8.00
2023-03-02T19:08:13.961Z,8.00
2023-03-02T19:10:42.544Z,8.00
2023-03-02T19:13:17.051Z,8.00
2023-03-02T19:15:45.164Z,8.00
2023-03-02T19:18:14.198Z,8.00
2023-03-02T19:20:42.302Z,8.10
2023-03-02T19:23:15.702Z,8.00
2023-03-02T19:25:43.780Z,8.00
2023-03-02T19:28:11.842Z,8.00
2023-03-02T19:30:41.342Z,8.00
2023-03-02T19:33:10.023Z,8.00
2023-03-02T19:35:38.648Z,8.00
2023-03-02T19:38:07.012Z,8.00
2023-03-02T19:40:35.555Z,8.00
2023-03-02T19:43:03.868Z,8.00
2023-03-02T19:45:34.913Z,8.00
2023-03-02T19:48:05.775Z,8.00
2023-03-02T19:50:33.925Z,8.00
2023-03-02T19:53:01.960Z,8.00
2023-03-02T19:55:30.025Z,8.00
2023-03-02T19:58:00.180Z,8.00
2023-03-02T20:00:28.823Z,8.00
2023-03-02T20:02:57.600Z,8.00
2023-03-02T20:05:27.663Z,8.00
2023-03-02T20:07:55.894Z,8.00
2023-03-02T20:10:28.758Z,8.00
2023-03-02T20:12:56.787Z,8.00
2023-03-02T20:15:24.868Z,8.00
2023-03-02T20:17:52.899Z,8.00
2023-03-02T20:20:21.018Z,8.00
2023-03-02T20:22:50.397Z,8.00
2023-03-02T20:25:19.833Z,8.00
2023-03-02T20:27:57.988Z,8.00
2023-03-02T20:30:29.007Z,8.00
2023-03-02T20:32:57.529Z,8.00
2023-03-02T20:35:25.863Z,8.00
2023-03-02T20:37:55.810Z,8.00
2023-03-02T20:40:23.897Z,8.00
2023-03-02T20:42:51.923Z,8.00
2023-03-02T20:45:20.163Z,8.00
2023-03-02T20:47:48.255Z,8.00
2023-03-02T20:50:18.006Z,8.00
2023-03-02T20:52:46.175Z,8.00
2023-03-02T20:55:15.652Z,8.00
2023-03-02T20:57:43.693Z,8.00
2023-03-02T21:00:16.160Z,8.00
2023-03-02T21:02:47.383Z,8.00
2023-03-02T21:05:15.790Z,8.00
2023-03-02T21:07:44.265Z,8.00
2023-03-02T21:10:16.546Z,8.00
2023-03-02T21:12:45.785Z,8.00
2023-03-02T21:15:14.100Z,7.90
2023-03-02T21:17:42.136Z,7.90
2023-03-02T21:20:12.506Z,7.90
2023-03-02T21:22:40.595Z,7.90
2023-03-02T21:25:09.345Z,7.90
2023-03-02T21:27:39.428Z,7.90
2023-03-02T21:30:10.191Z,7.90
2023-03-02T21:32:38.215Z,7.90
2023-03-02T21:35:06.993Z,7.90
2023-03-02T21:37:35.028Z,7.90
2023-03-02T21:40:03.142Z,7.90
2023-03-02T21:42:31.178Z,7.90
2023-03-02T21:45:00.589Z,7.90
2023-03-02T21:47:28.643Z,7.90
2023-03-02T21:49:56.707Z,7.90
2023-03-02T21:52:27.317Z,7.90
2023-03-02T21:54:55.450Z,7.90
2023-03-02T21:57:23.534Z,7.90
2023-03-02T21:59:53.594Z,7.90
2023-03-02T22:02:23.131Z,7.90
2023-03-02T22:04:51.162Z,7.90
2023-03-02T22:07:19.204Z,7.90
2023-03-02T22:09:47.253Z,7.90
2023-03-02T22:12:15.359Z,7.90
2023-03-02T22:14:45.782Z,7.90
2023-03-02T22:17:17.078Z,7.90
2023-03-02T22:19:46.484Z,7.90
2023-03-02T22:22:17.874Z,7.90
2023-03-02T22:24:47.542Z,7.90
2023-03-02T22:27:22.524Z,7.90
2023-03-02T22:29:50.734Z,7.90
2023-03-02T22:32:20.019Z,7.90
2023-03-02T22:34:54.594Z,7.90
2023-03-02T22:37:23.718Z,7.90
2023-03-02T22:39:54.243Z,7.90
2023-03-02T22:42:23.098Z,7.90
2023-03-02T22:44:53.736Z,7.90
2023-03-02T22:47:21.812Z,7.90
2023-03-02T22:49:59.187Z,7.90
2023-03-02T22:52:39.254Z,7.90
2023-03-02T22:55:32.305Z,7.90
2023-03-02T22:58:00.331Z,7.90
2023-03-02T23:00:35.033Z,7.90
2023-03-02T23:03:32.819Z,7.90
2023-03-02T23:06:02.267Z,7.90
2023-03-02T23:08:30.605Z,7.90
2023-03-02T23:10:59.350Z,7.90
2023-03-02T23:13:30.845Z,7.90
2023-03-02T23:16:03.906Z,7.90
2023-03-02T23:18:31.929Z,7.90
2023-03-02T23:21:01.366Z,7.90
2023-03-02T23:23:29.384Z,7.90
2023-03-02T23:25:57.408Z,7.90
2023-03-02T23:28:25.495Z,7.90
2023-03-02T23:30:53.539Z,7.90
2023-03-02T23:33:21.591Z,7.90
2023-03-02T23:35:49.678Z,7.90
2023-03-02T23:38:19.103Z,7.90
2023-03-02T23:40:47.118Z,7.90
2023-03-02T23:43:15.158Z,7.90
2023-03-02T23:45:43.222Z,7.90
2023-03-02T23:48:11.265Z,7.90
2023-03-02T23:50:39.485Z,7.90
2023-03-02T23:53:07.525Z,7.90
2023-03-02T23:55:37.025Z,7.90
2023-03-02T23:58:05.040Z,7.90
